Time;durP1;ratioP1;P1;durP2;ratioP2;P2;SDS_P1;SDS_P2;PMS_P1;PMS_P2;Temp;Humidity;BMP_temperature;BMP_pressure;BME280_temperature;BME280_humidity;BME280_pressure;Samples;Min_cycle;Max_cycle;Signal;HPM_P1;HPM_P2
2022/11/28 00:00:50;;;;;;;5.35;3.40;;;;;;;-13.94;70.83;99355.88;6199309;28;20058;-65
2022/11/28 00:03:54;;;;;;;8.30;3.97;;;;;;;-13.95;70.55;99356.63;6199526;28;20521;-67
2022/11/28 00:06:58;;;;;;;7.95;3.65;;;;;;;-14.00;70.83;99332.69;6199350;28;20030;-67
2022/11/28 00:10:02;;;;;;;10.15;4.40;;;;;;;-13.94;70.70;99343.22;6199165;28;20490;-67
2022/11/28 00:13:04;;;;;;;7.28;4.22;;;;;;;-13.95;71.01;99346.50;6198287;28;20057;-67
2022/11/28 00:16:20;;;;;;;4.43;2.78;;;;;;;-13.89;71.20;99345.31;6199088;28;20136;-67
2022/11/28 00:19:21;;;;;;;7.45;3.53;;;;;;;-13.92;70.56;99349.28;6198206;28;20196;-67
2022/11/28 00:22:28;;;;;;;9.07;4.38;;;;;;;-13.93;71.05;99339.91;6198969;28;20421;-67
2022/11/28 00:25:32;;;;;;;5.93;3.45;;;;;;;-13.90;71.03;99350.25;6198351;28;20532;-67
2022/11/28 00:28:38;;;;;;;;;;;;;;;-13.94;70.36;99364.34;6199085;28;20066;-66
2022/11/28 00:31:43;;;;;;;10.02;5.07;;;;;;;-14.02;71.03;99351.13;6198844;28;20411;-66
2022/11/28 00:34:44;;;;;;;12.82;5.90;;;;;;;-13.93;71.19;99355.97;6197881;28;20098;-67
2022/11/28 00:37:46;;;;;;;10.23;3.97;;;;;;;-13.86;71.12;99347.19;6198214;28;20050;-66
2022/11/28 00:40:47;;;;;;;8.02;4.60;;;;;;;-13.85;70.96;99333.75;6197946;28;20046;-67
2022/11/28 00:43:51;;;;;;;;;;;;;;;-13.83;70.60;99352.44;6198827;28;20042;-66
2022/11/28 00:46:59;;;;;;;12.88;5.45;;;;;;;-13.89;70.79;99354.56;6198653;28;19926;-67
2022/11/28 00:50:31;;;;;;;7.90;4.97;;;;;;;-13.89;70.77;99345.31;6197895;28;20062;-67
2022/11/28 00:53:32;;;;;;;11.20;5.00;;;;;;;-13.89;70.76;99346.97;6197627;28;20152;-67
2022/11/28 00:56:37;;;;;;;;;;;;;;;-13.80;71.12;99345.94;6198331;28;20561;-66
2022/11/28 00:59:38;;;;;;;4.93;3.10;;;;;;;-13.83;70.80;99344.84;6197563;28;20043;-67
2022/11/28 01:02:42;;;;;;;;;;;;;;;-13.71;70.75;99348.22;6198410;28;20549;-67
2022/11/28 01:05:45;;;;;;;14.23;7.28;;;;;;;-13.84;70.89;99351.56;6197165;28;19928;-68
2022/11/28 01:08:47;;;;;;;;;;;;;;;-13.82;70.64;99354.19;6197803;28;20417;-66
2022/11/28 01:11:52;;;;;;;6.55;4.22;;;;;;;-13.92;70.80;99356.88;6197515;28;19928;-66
2022/11/28 01:14:57;;;;;;;16.45;7.75;;;;;;;-13.99;70.69;99362.25;6198018;28;20713;-66
2022/11/28 01:18:03;;;;;;;15.23;7.45;;;;;;;-13.96;71.36;99354.88;6197584;28;20156;-68
2022/11/28 01:21:07;;;;;;;8.52;5.30;;;;;;;-13.92;71.25;99346.75;6197596;28;20046;-67
2022/11/28 01:24:13;;;;;;;12.18;5.05;;;;;;;-13.97;70.89;99348.94;6197533;28;20038;-67
2022/11/28 01:27:17;;;;;;;10.30;5.72;;;;;;;-13.86;70.76;99359.84;6196512;28;20050;-67
2022/11/28 01:30:23;;;;;;;14.70;6.95;;;;;;;-13.92;71.23;99347.63;6196562;28;20062;-68
2022/11/28 01:33:24;;;;;;;9.55;5.57;;;;;;;-13.95;71.15;99347.41;6197336;28;20070;-67
2022/11/28 01:36:26;;;;;;;14.05;7.13;;;;;;;-13.95;70.67;99351.56;6196788;28;20050;-68
2022/11/28 01:39:27;;;;;;;9.18;5.10;;;;;;;-14.02;71.06;99345.19;6196088;28;20068;-67
2022/11/28 01:42:28;;;;;;;12.25;6.38;;;;;;;-14.06;71.25;99349.19;6196652;28;20050;-68
2022/11/28 01:45:35;;;;;;;8.55;4.97;;;;;;;-14.14;71.39;99347.75;6196667;28;20054;-67
2022/11/28 01:48:41;;;;;;;9.48;4.93;;;;;;;-14.11;71.18;99354.69;6196319;28;20153;-67
2022/11/28 01:51:52;;;;;;;12.63;6.13;;;;;;;-14.18;71.26;99345.78;6197235;28;20057;-67
2022/11/28 01:54:59;;;;;;;9.75;5.10;;;;;;;-14.11;71.11;99340.38;6196156;28;20141;-67
2022/11/28 01:58:05;;;;;;;11.85;4.38;;;;;;;-14.02;71.29;99348.59;6196007;28;20061;-67
2022/11/28 02:01:10;;;;;;;14.70;6.43;;;;;;;-13.97;71.30;99343.00;6197026;28;20039;-67
2022/11/28 02:04:12;;;;;;;13.38;5.95;;;;;;;-13.98;71.18;99341.22;6195502;28;20053;-67
2022/11/28 02:07:19;;;;;;;14.95;6.78;;;;;;;-13.99;71.28;99354.66;6196007;28;20073;-67
2022/11/28 02:10:27;;;;;;;15.30;6.88;;;;;;;-13.94;71.05;99328.91;6196022;28;20061;-68
2022/11/28 02:13:39;;;;;;;13.05;6.28;;;;;;;-13.93;70.81;99327.25;6196512;28;20042;-68
2022/11/28 02:17:22;;;;;;;8.80;4.28;;;;;;;-13.88;70.69;99323.41;6161669;28;20055;-67
2022/11/28 02:20:54;;;;;;;7.57;5.10;;;;;;;-13.98;71.07;99315.94;6148769;29;20410;-68
2022/11/28 02:24:22;;;;;;;8.75;5.22;;;;;;;-14.05;71.06;99300.31;6148642;28;20043;-67
2022/11/28 02:27:52;;;;;;;19.88;8.30;;;;;;;-13.99;70.69;99310.00;6148339;29;20066;-67
2022/11/28 02:31:09;;;;;;;14.32;7.22;;;;;;;-14.11;71.00;99310.03;6147924;28;20047;-67
2022/11/28 02:34:25;;;;;;;5.15;3.65;;;;;;;-14.15;71.17;99308.06;6148227;28;20411;-67
2022/11/28 02:37:51;;;;;;;13.73;7.20;;;;;;;-14.12;70.77;99303.22;6147811;28;20047;-67
2022/11/28 02:41:09;;;;;;;18.08;7.70;;;;;;;-14.29;70.78;99308.72;6147797;28;20101;-67
2022/11/28 02:44:15;;;;;;;12.00;7.25;;;;;;;-14.32;71.34;99323.66;6148057;28;20047;-67
2022/11/28 02:47:28;;;;;;;13.75;6.72;;;;;;;-14.39;71.23;99326.53;6148292;28;20061;-68
2022/11/28 02:50:38;;;;;;;11.67;5.67;;;;;;;-14.28;71.29;99344.22;6149002;28;20545;-68
2022/11/28 02:53:44;;;;;;;15.88;6.63;;;;;;;-14.21;71.08;99348.06;6152971;28;20541;-68
2022/11/28 02:56:48;;;;;;;18.63;7.72;;;;;;;-14.17;71.33;99345.00;6152984;28;20051;-67
2022/11/28 02:59:50;;;;;;;;;;;;;;;-14.09;70.78;99337.97;6153106;28;20225;-67
2022/11/28 03:03:21;;;;;;;14.63;6.65;;;;;;;-14.03;70.90;99351.03;6152483;28;19950;-67
2022/11/28 03:06:40;;;;;;;10.85;5.32;;;;;;;-14.03;71.30;99351.91;6148688;29;20063;-68
2022/11/28 03:09:54;;;;;;;10.23;5.38;;;;;;;-14.07;71.11;99362.56;6152517;28;20043;-67
2022/11/28 03:13:21;;;;;;;9.70;4.25;;;;;;;-14.08;70.96;99375.13;6152393;28;20051;-68
2022/11/28 03:16:33;;;;;;;23.05;7.43;;;;;;;-14.15;71.17;99373.81;6161247;28;20175;-67
2022/11/28 03:19:48;;;;;;;12.73;6.70;;;;;;;-14.15;71.01;99373.81;6199899;28;20058;-67
2022/11/28 03:23:01;;;;;;;16.10;8.13;;;;;;;-14.12;71.34;99374.03;6200366;28;20417;-67
2022/11/28 03:26:12;;;;;;;10.77;5.07;;;;;;;-14.05;71.19;99373.69;6200254;28;20042;-67
2022/11/28 03:29:30;;;;;;;9.50;5.43;;;;;;;-14.11;70.64;99383.38;6199791;28;20050;-67
2022/11/28 03:32:38;;;;;;;12.88;6.53;;;;;;;-14.21;71.09;99373.38;6199248;28;20058;-67
2022/11/28 03:35:48;;;;;;;14.95;6.15;;;;;;;-14.29;70.97;99364.38;6182355;28;20087;-67
2022/11/28 03:38:55;;;;;;;15.32;6.25;;;;;;;-14.27;71.25;99357.75;6199215;28;20054;-68
2022/11/28 03:42:08;;;;;;;20.65;9.63;;;;;;;-14.23;71.05;99359.75;6199286;28;20072;-67
2022/11/28 03:45:16;;;;;;;17.13;6.30;;;;;;;-14.18;70.92;99368.56;6200015;28;20144;-67
2022/11/28 03:48:26;;;;;;;16.00;5.35;;;;;;;-14.13;70.79;99361.28;6199181;28;20066;-67
2022/11/28 03:51:31;;;;;;;15.07;6.13;;;;;;;-14.19;70.98;99361.72;6199518;28;20079;-68
2022/11/28 03:54:44;;;;;;;13.98;7.07;;;;;;;-14.27;71.16;99376.31;6199534;28;20838;-67
2022/11/28 03:58:01;;;;;;;24.83;10.18;;;;;;;-14.21;71.01;99377.53;6199558;28;20038;-67
2022/11/28 04:01:08;;;;;;;;;;;;;;;-14.09;71.02;99371.72;6199680;28;20046;-66
2022/11/28 04:04:36;;;;;;;24.23;8.68;;;;;;;-14.04;70.71;99378.00;6197772;28;19921;-67
2022/11/28 04:07:46;;;;;;;19.88;8.73;;;;;;;-13.95;70.49;99364.22;6199157;28;20046;-67
2022/11/28 04:11:02;;;;;;;26.88;11.60;;;;;;;-13.90;71.03;99373.03;6198554;28;20540;-67
2022/11/28 04:14:11;;;;;;;25.83;10.43;;;;;;;-13.88;70.86;99385.00;6198529;28;20050;-67
2022/11/28 04:17:56;;;;;;;29.98;10.65;;;;;;;-13.87;70.45;99396.00;6178469;28;20059;-67
2022/11/28 04:21:19;;;;;;;27.17;9.63;;;;;;;-13.78;70.76;99404.28;6100411;29;20067;-68
2022/11/28 04:24:27;;;;;;;26.75;10.05;;;;;;;-13.70;70.91;99409.84;6104773;28;20135;-67
2022/11/28 04:27:36;;;;;;;18.15;9.75;;;;;;;-13.68;70.68;99400.72;6150815;29;20053;-66
2022/11/28 04:30:42;;;;;;;32.85;12.88;;;;;;;-13.58;70.67;99395.56;6150412;28;20062;-68
2022/11/28 04:33:51;;;;;;;35.28;13.95;;;;;;;-13.56;70.37;99388.91;6150844;29;20051;-67
2022/11/28 04:37:01;;;;;;;16.50;6.75;;;;;;;-13.43;70.21;99378.00;6150906;29;20039;-67
2022/11/28 04:40:06;;;;;;;34.28;14.05;;;;;;;-13.35;70.68;99389.53;6150589;28;20134;-68
2022/11/28 04:43:20;;;;;;;43.88;13.93;;;;;;;-13.26;70.31;99410.44;6150397;29;20137;-68
2022/11/28 04:46:42;;;;;;;48.70;16.38;;;;;;;-13.14;70.58;99403.63;6150528;29;20122;-68
2022/11/28 04:49:43;;;;;;;32.42;12.30;;;;;;;-12.86;69.91;99408.03;6150342;29;20043;-67
2022/11/28 04:52:52;;;;;;;26.40;9.75;;;;;;;-12.62;69.56;99415.53;6150142;29;20519;-66
2022/11/28 04:56:01;;;;;;;32.33;12.48;;;;;;;-12.44;69.60;99412.56;6150128;28;20133;-67
2022/11/28 04:59:07;;;;;;;41.35;13.55;;;;;;;-12.40;69.38;99411.09;6149846;28;20153;-67
2022/11/28 05:02:14;;;;;;;16.90;7.20;;;;;;;-12.36;69.44;99418.16;6148965;28;20053;-67
2022/11/28 05:05:22;;;;;;;18.83;8.55;;;;;;;-12.35;69.46;99422.44;6148410;28;20051;-68
2022/11/28 05:08:26;;;;;;;19.67;9.07;;;;;;;-12.41;69.53;99416.97;6147901;28;20042;-67
2022/11/28 05:11:29;;;;;;;16.33;8.20;;;;;;;-12.49;69.52;99426.59;6148122;29;20047;-67
2022/11/28 05:14:31;;;;;;;21.98;9.57;;;;;;;-12.52;70.12;99410.31;6147140;28;20079;-68
2022/11/28 05:17:33;;;;;;;20.55;8.73;;;;;;;-12.45;69.92;99415.00;6174454;28;20046;-67
2022/11/28 05:20:38;;;;;;;14.25;7.32;;;;;;;-12.34;69.74;99429.28;6197615;28;20042;-68
2022/11/28 05:23:44;;;;;;;22.33;9.20;;;;;;;-12.26;69.68;99423.03;6197046;28;20532;-68
2022/11/28 05:26:45;;;;;;;13.10;8.00;;;;;;;-12.21;69.57;99408.13;6211955;28;20137;-66
2022/11/28 05:29:46;;;;;;;10.25;5.93;;;;;;;-12.08;69.20;99409.81;6196520;28;20047;-67
2022/11/28 05:32:51;;;;;;;13.35;7.18;;;;;;;-11.92;69.03;99432.81;6197444;28;20532;-68
2022/11/28 05:35:55;;;;;;;11.10;5.93;;;;;;;-11.91;69.31;99439.69;6196887;28;20089;-67
2022/11/28 05:38:56;;;;;;;9.48;5.05;;;;;;;-11.76;68.94;99460.06;6196613;28;20505;-68
2022/11/28 05:42:02;;;;;;;11.80;6.13;;;;;;;-11.65;68.85;99459.09;6197073;28;20046;-68
2022/11/28 05:45:07;;;;;;;7.00;4.40;;;;;;;-11.41;68.86;99464.81;6197294;28;20429;-67
2022/11/28 05:48:11;;;;;;;10.05;4.95;;;;;;;-11.27;68.51;99452.97;6197046;28;20050;-69
2022/11/28 05:51:14;;;;;;;6.82;3.78;;;;;;;-11.22;68.28;99450.72;6196371;28;20430;-69
2022/11/28 05:54:18;;;;;;;8.00;5.30;;;;;;;-11.11;68.29;99430.28;6197027;28;20046;-67
2022/11/28 05:57:19;;;;;;;8.77;4.72;;;;;;;-10.66;67.68;99453.31;6196091;28;20050;-67
2022/11/28 06:00:25;;;;;;;;;;;;;;;-10.34;67.33;99465.38;6196769;28;20046;-68
2022/11/28 06:03:26;;;;;;;11.10;4.78;;;;;;;-10.27;66.62;99466.66;6196379;28;20405;-67
2022/11/28 06:06:35;;;;;;;9.93;4.80;;;;;;;-10.18;66.57;99467.13;6196285;28;20046;-69
2022/11/28 06:09:42;;;;;;;11.05;6.68;;;;;;;-9.93;66.45;99464.34;6195621;28;20437;-68
2022/11/28 06:12:48;;;;;;;17.40;8.35;;;;;;;-9.66;66.01;99472.66;6196651;28;20424;-68
2022/11/28 06:15:55;;;;;;;14.30;8.20;;;;;;;-9.41;65.90;99466.38;6196534;28;20046;-67
2022/11/28 06:19:01;;;;;;;12.02;6.13;;;;;;;-9.40;65.68;99455.38;6196468;28;20050;-68
2022/11/28 06:22:05;;;;;;;8.85;5.45;;;;;;;-9.35;65.20;99477.78;6195813;28;20065;-67
2022/11/28 06:25:12;;;;;;;12.00;6.07;;;;;;;-9.32;65.52;99474.53;6196911;28;20082;-68
2022/11/28 06:28:19;;;;;;;9.32;5.30;;;;;;;-9.23;65.88;99472.47;6201238;28;20046;-69
2022/11/28 06:31:27;;;;;;;8.65;4.35;;;;;;;-9.18;65.47;99450.66;6201381;28;20042;-69
2022/11/28 06:34:35;;;;;;;12.88;5.97;;;;;;;-9.21;65.23;99445.41;6201439;28;20046;-67
2022/11/28 06:37:41;;;;;;;10.32;5.40;;;;;;;-9.06;65.21;99451.34;6200636;28;20519;-68
2022/11/28 06:40:42;;;;;;;11.45;5.18;;;;;;;-8.67;65.13;99456.78;6200347;28;20050;-67
2022/11/28 06:43:47;;;;;;;12.50;6.15;;;;;;;-8.28;64.79;99464.72;6200529;28;20042;-67
2022/11/28 06:46:48;;;;;;;7.53;4.35;;;;;;;-7.83;63.38;99457.59;6200210;28;20509;-67
2022/11/28 06:49:52;;;;;;;8.50;4.05;;;;;;;-7.78;63.09;99465.50;6200403;28;20050;-68
2022/11/28 06:53:00;;;;;;;9.13;4.70;;;;;;;-7.78;62.91;99473.19;6200998;28;20050;-68
2022/11/28 06:56:08;;;;;;;10.05;4.50;;;;;;;-7.72;63.26;99461.56;6200848;28;20456;-68
2022/11/28 06:59:11;;;;;;;12.02;4.95;;;;;;;-7.59;62.86;99462.16;6199983;28;20428;-67
2022/11/28 07:02:15;;;;;;;7.93;4.15;;;;;;;-7.48;62.59;99455.88;6200784;28;20425;-68
2022/11/28 07:05:16;;;;;;;12.35;5.15;;;;;;;-6.87;62.08;99453.59;6200114;28;20046;-67
2022/11/28 07:08:20;;;;;;;11.30;4.60;;;;;;;-5.32;59.69;99466.94;6183247;28;20600;-67
2022/11/28 07:11:27;;;;;;;7.28;3.90;;;;;;;-5.03;58.55;99471.53;6199086;28;20107;-67
2022/11/28 07:14:32;;;;;;;12.20;5.32;;;;;;;-5.30;58.72;99465.31;6200556;28;20046;-67
2022/11/28 07:17:37;;;;;;;12.07;5.00;;;;;;;-5.91;59.75;99454.34;6199806;28;20058;-68
2022/11/28 07:20:38;;;;;;;11.45;5.03;;;;;;;-6.43;60.39;99457.25;6199746;28;20501;-67
2022/11/28 07:23:40;;;;;;;12.77;4.88;;;;;;;-6.85;60.60;99452.00;6199807;28;20046;-67
2022/11/28 07:26:44;;;;;;;12.32;5.38;;;;;;;-7.15;60.88;99455.72;6199883;28;20137;-67
2022/11/28 07:29:45;;;;;;;;;;;;;;;-7.11;61.14;99473.81;6199612;28;20583;-67
2022/11/28 07:32:46;;;;;;;7.85;4.47;;;;;;;-7.17;61.30;99476.09;6198976;28;19922;-67
2022/11/28 07:35:47;;;;;;;14.25;6.07;;;;;;;-7.34;61.35;99474.44;6199708;28;20051;-67
2022/11/28 07:38:53;;;;;;;9.82;5.15;;;;;;;-7.60;61.79;99475.75;6198850;28;20054;-67
2022/11/28 07:41:54;;;;;;;11.35;5.78;;;;;;;-7.61;62.06;99479.09;6198864;28;20053;-67
2022/11/28 07:44:55;;;;;;;13.07;5.97;;;;;;;-7.62;61.63;99482.44;6198672;28;20425;-68
2022/11/28 07:47:59;;;;;;;16.75;5.93;;;;;;;-7.73;61.86;99474.25;6199230;28;20050;-67
2022/11/28 07:51:06;;;;;;;12.65;6.30;;;;;;;-7.88;62.25;99466.72;6199075;28;20407;-67
2022/11/28 07:54:12;;;;;;;17.30;6.97;;;;;;;-7.99;62.23;99460.19;6198851;28;20571;-67
2022/11/28 07:57:13;;;;;;;12.63;7.15;;;;;;;-8.01;61.70;99452.47;6199024;28;20061;-67
2022/11/28 08:00:15;;;;;;;32.60;14.25;;;;;;;-7.97;62.06;99453.50;6199319;28;20042;-67
2022/11/28 08:03:17;;;;;;;47.53;21.60;;;;;;;-7.96;62.11;99455.22;6199552;28;20121;-68
2022/11/28 08:06:23;;;;;;;58.47;23.73;;;;;;;-7.96;62.18;99462.91;6198770;28;20050;-67
2022/11/28 08:09:30;;;;;;;71.97;27.88;;;;;;;-8.17;61.65;99466.13;6198679;28;20108;-67
2022/11/28 08:12:34;;;;;;;53.70;20.97;;;;;;;-8.31;62.23;99450.94;6198630;28;20427;-67
2022/11/28 08:15:40;;;;;;;52.45;21.83;;;;;;;-8.45;62.16;99457.91;6198397;28;20054;-67
2022/11/28 08:18:45;;;;;;;55.15;21.52;;;;;;;-8.70;62.25;99460.84;6198577;28;20050;-67
2022/11/28 08:21:46;;;;;;;50.38;21.17;;;;;;;-8.90;62.22;99467.47;6198166;28;20050;-68
2022/11/28 08:24:50;;;;;;;68.30;25.98;;;;;;;-9.12;62.30;99468.84;6198775;28;20050;-68
2022/11/28 08:27:51;;;;;;;54.47;24.30;;;;;;;-9.24;62.33;99460.53;6198880;28;20571;-67
2022/11/28 08:31:00;;;;;;;61.63;24.77;;;;;;;-9.28;62.44;99458.63;6198779;28;20046;-67
2022/11/28 08:34:04;;;;;;;61.35;27.67;;;;;;;-9.29;62.46;99461.97;6197717;28;20054;-67
2022/11/28 08:37:08;;;;;;;49.20;19.88;;;;;;;-9.33;62.00;99480.44;6198533;28;20440;-67
2022/11/28 08:40:15;;;;;;;34.78;14.68;;;;;;;-9.38;62.02;99477.63;6198365;28;20046;-67
2022/11/28 08:43:16;;;;;;;41.78;19.35;;;;;;;-9.46;61.94;99475.44;6197802;28;20046;-67
2022/11/28 08:46:23;;;;;;;35.67;15.77;;;;;;;-9.45;61.72;99464.44;6198700;28;20046;-68
2022/11/28 08:49:26;;;;;;;36.75;17.52;;;;;;;-9.55;61.73;99469.03;6197341;28;20051;-67
2022/11/28 08:52:31;;;;;;;45.00;18.42;;;;;;;-9.57;61.47;99460.41;6197297;28;20047;-67
2022/11/28 08:55:33;;;;;;;41.20;18.70;;;;;;;-9.50;61.39;99470.19;6197544;28;20140;-68
2022/11/28 08:58:39;;;;;;;;;;;;;;;-9.36;61.01;99459.88;6198505;28;20050;-67
2022/11/28 09:01:43;;;;;;;39.67;18.90;;;;;;;-9.36;61.29;99459.88;6197210;28;19922;-67
2022/11/28 09:04:44;;;;;;;;;;;;;;;-9.24;61.15;99460.53;6197619;28;20042;-67
2022/11/28 09:07:47;;;;;;;40.60;17.35;;;;;;;-9.15;60.56;99453.38;6198104;28;19925;-67
2022/11/28 09:10:51;;;;;;;49.97;20.00;;;;;;;-9.22;60.71;99458.97;6196918;28;20050;-67
2022/11/28 09:13:58;;;;;;;52.95;22.42;;;;;;;-9.22;60.86;99447.88;6197753;28;20497;-68
2022/11/28 09:17:00;;;;;;;56.97;22.10;;;;;;;-9.23;60.86;99444.44;6197037;28;20050;-67
2022/11/28 09:20:04;;;;;;;64.70;26.58;;;;;;;-9.42;60.85;99439.16;6197736;28;20133;-68
2022/11/28 09:23:07;;;;;;;58.88;23.08;;;;;;;-9.56;61.17;99444.34;6196225;28;20046;-68
2022/11/28 09:26:09;;;;;;;41.25;19.23;;;;;;;-9.50;61.00;99442.16;6197105;28;20054;-67
2022/11/28 09:29:10;;;;;;;58.63;26.27;;;;;;;-9.66;61.03;99431.88;6196919;28;20046;-67
2022/11/28 09:32:11;;;;;;;71.93;32.10;;;;;;;-9.66;60.92;99439.53;6197040;28;20057;-68
2022/11/28 09:35:16;;;;;;;70.43;29.67;;;;;;;-9.75;60.75;99444.13;6196565;28;20097;-67
2022/11/28 09:38:17;;;;;;;54.53;22.08;;;;;;;-9.88;61.00;99441.66;6197202;28;20034;-68
2022/11/28 09:41:37;;;;;;;62.03;22.85;;;;;;;-10.09;61.28;99436.25;6179556;28;20046;-67
2022/11/28 09:44:54;;;;;;;49.08;22.90;;;;;;;-10.15;61.53;99421.50;6197276;28;20046;-68
2022/11/28 09:48:21;;;;;;;60.40;25.08;;;;;;;-10.13;61.10;99424.09;6196382;28;20046;-68
2022/11/28 09:51:51;;;;;;;47.65;19.52;;;;;;;-10.26;61.56;99435.25;6196373;28;20474;-68
2022/11/28 09:55:10;;;;;;;59.40;23.02;;;;;;;-10.34;61.59;99431.44;6196220;28;20042;-67
2022/11/28 09:58:35;;;;;;;62.90;25.45;;;;;;;-10.31;61.73;99439.25;6196362;28;20065;-68
2022/11/28 10:01:47;;;;;;;72.35;26.85;;;;;;;-10.28;61.85;99444.50;6195216;28;20086;-69
2022/11/28 10:05:03;;;;;;;55.75;22.55;;;;;;;-10.31;61.20;99441.78;6195930;28;20065;-67
2022/11/28 10:08:19;;;;;;;62.85;23.95;;;;;;;-10.48;61.79;99444.22;6196544;28;20059;-68
2022/11/28 10:11:34;;;;;;;57.22;20.42;;;;;;;-10.65;61.48;99450.84;6196057;28;20062;-68
2022/11/28 10:14:55;;;;;;;38.60;15.05;;;;;;;-10.79;61.70;99453.34;6196126;28;20136;-69
2022/11/28 10:18:01;;;;;;;35.90;13.13;;;;;;;-10.94;62.15;99456.72;6196135;28;20494;-68
2022/11/28 10:21:43;;;;;;;34.85;12.70;;;;;;;-11.12;62.24;99453.94;6195976;28;20046;-68
2022/11/28 10:24:53;;;;;;;41.75;14.38;;;;;;;-11.24;62.57;99442.13;6077408;28;20139;-68
2022/11/28 10:27:56;;;;;;;36.47;13.00;;;;;;;-11.22;62.67;99440.56;6195754;28;20530;-68
2022/11/28 10:31:19;;;;;;;28.15;11.00;;;;;;;-11.17;62.37;99436.66;6195564;28;20061;-67
2022/11/28 10:34:54;;;;;;;24.20;8.98;;;;;;;-11.17;62.07;99436.66;6195633;28;20055;-68
2022/11/28 10:37:58;;;;;;;26.85;9.48;;;;;;;-11.25;62.29;99431.09;6195467;28;20644;-68
2022/11/28 10:41:10;;;;;;;17.77;8.32;;;;;;;-11.28;61.96;99432.56;6195735;28;20050;-68
2022/11/28 10:44:26;;;;;;;19.73;8.60;;;;;;;-11.31;62.04;99426.50;6196520;28;20050;-68
2022/11/28 10:47:55;;;;;;;20.60;9.02;;;;;;;-11.30;62.34;99438.41;6196449;28;20053;-68
2022/11/28 10:51:15;;;;;;;24.73;9.85;;;;;;;-11.53;62.94;99434.44;6196163;28;20047;-68
2022/11/28 10:54:57;;;;;;;24.92;9.10;;;;;;;-11.43;63.13;99441.00;6196332;28;20054;-68
2022/11/28 10:58:53;;;;;;;30.25;12.50;;;;;;;-11.71;63.11;99442.59;6195588;28;20394;-68
2022/11/28 11:01:56;;;;;;;33.95;10.75;;;;;;;-11.83;63.79;99446.09;6124947;28;20050;-67
2022/11/28 11:04:57;;;;;;;33.47;13.07;;;;;;;-11.85;63.35;99445.13;6178510;28;20042;-68
2022/11/28 11:08:10;;;;;;;25.75;10.35;;;;;;;-11.88;63.81;99446.63;6196093;28;20404;-69
2022/11/28 11:11:31;;;;;;;32.60;14.70;;;;;;;-12.05;63.11;99453.16;6194298;28;20058;-68
2022/11/28 11:14:39;;;;;;;40.10;14.73;;;;;;;-12.17;63.95;99462.47;6200432;28;20050;-69
2022/11/28 11:17:40;;;;;;;39.22;15.60;;;;;;;-12.18;63.90;99463.25;6199943;28;20137;-67
2022/11/28 11:20:45;;;;;;;46.30;17.92;;;;;;;-12.19;63.55;99471.66;6199918;28;20539;-67
2022/11/28 11:23:48;;;;;;;47.22;19.48;;;;;;;-12.19;64.05;99466.59;6199531;28;20054;-68
2022/11/28 11:26:50;;;;;;;48.00;17.45;;;;;;;-12.28;63.84;99469.41;6199988;28;20054;-68
2022/11/28 11:29:54;;;;;;;27.35;12.23;;;;;;;-12.44;63.85;99475.97;6199547;28;20449;-67
2022/11/28 11:32:57;;;;;;;29.35;13.27;;;;;;;-12.53;63.80;99479.56;6199281;28;20054;-68
2022/11/28 11:36:20;;;;;;;44.25;14.90;;;;;;;-12.85;64.39;99470.63;6199983;28;20042;-68
2022/11/28 11:39:24;;;;;;;20.10;8.77;;;;;;;-13.02;64.40;99468.59;6199403;28;20068;-69
2022/11/28 11:42:28;;;;;;;32.67;13.30;;;;;;;-13.10;64.87;99473.16;6198712;28;20054;-68
2022/11/28 11:45:29;;;;;;;44.80;15.80;;;;;;;-13.18;64.69;99470.09;6199154;28;20437;-68
2022/11/28 11:48:38;;;;;;;;;;;;;;;-13.18;64.76;99479.34;6200296;28;20536;-69
2022/11/28 11:51:39;;;;;;;34.40;13.73;;;;;;;-13.31;64.38;99472.56;6198670;28;19917;-68
2022/11/28 11:54:46;;;;;;;22.63;9.13;;;;;;;-13.35;65.11;99465.53;6199006;28;20061;-68
2022/11/28 11:57:53;;;;;;;29.65;11.90;;;;;;;-13.44;64.78;99458.16;6198805;28;20046;-69
2022/11/28 12:00:58;;;;;;;35.03;13.35;;;;;;;-13.51;65.20;99450.91;6199272;28;20050;-68
2022/11/28 12:04:06;;;;;;;37.90;13.38;;;;;;;-13.60;65.13;99463.78;6198391;28;20050;-69
2022/11/28 12:07:25;;;;;;;32.78;13.52;;;;;;;-13.61;64.86;99472.16;6199412;28;20046;-69
2022/11/28 12:10:42;;;;;;;34.70;13.80;;;;;;;-13.58;65.18;99467.31;6198859;28;20188;-69
2022/11/28 12:13:45;;;;;;;28.75;10.98;;;;;;;-13.61;65.28;99477.22;6198094;28;20065;-68
2022/11/28 12:17:09;;;;;;;35.88;13.10;;;;;;;-13.71;65.36;99469.75;6198243;28;20077;-68
2022/11/28 12:20:44;;;;;;;26.70;11.85;;;;;;;-13.61;65.05;99472.16;6198676;28;20179;-67
2022/11/28 12:24:00;;;;;;;21.92;9.38;;;;;;;-13.76;65.56;99473.59;6197806;28;20054;-68
2022/11/28 12:27:20;;;;;;;22.55;10.02;;;;;;;-13.77;65.27;99464.25;6198682;28;20148;-66
2022/11/28 12:30:56;;;;;;;18.30;9.38;;;;;;;-13.85;65.62;99470.41;6180767;28;20105;-68
2022/11/28 12:34:28;;;;;;;19.52;8.30;;;;;;;-13.91;65.36;99469.97;6198476;28;20061;-68
2022/11/28 12:37:41;;;;;;;16.77;7.88;;;;;;;-13.91;65.37;99480.09;6197572;28;20061;-68
2022/11/28 12:40:58;;;;;;;14.80;6.13;;;;;;;-13.86;65.46;99474.59;6197536;28;20395;-67
2022/11/28 12:44:23;;;;;;;14.02;6.63;;;;;;;-13.84;65.76;99474.69;6198375;28;20042;-67
2022/11/28 12:47:42;;;;;;;13.75;6.25;;;;;;;-13.88;65.47;99472.72;6198291;28;20039;-67
2022/11/28 12:50:54;;;;;;;18.67;7.00;;;;;;;-13.89;65.17;99460.84;6197704;28;20568;-68
2022/11/28 12:54:21;;;;;;;11.68;6.22;;;;;;;-13.82;65.51;99470.63;6197580;28;20054;-67
2022/11/28 12:57:41;;;;;;;13.07;7.13;;;;;;;-13.87;65.14;99455.13;6197432;28;20434;-68
2022/11/28 13:01:24;;;;;;;15.50;7.38;;;;;;;-13.79;64.92;99458.19;6197668;28;20050;-69
2022/11/28 13:05:03;;;;;;;20.20;8.82;;;;;;;-13.89;65.49;99464.25;6183825;28;20050;-68
2022/11/28 13:08:35;;;;;;;15.90;8.13;;;;;;;-13.95;65.26;99462.91;6197365;28;20046;-68
2022/11/28 13:11:45;;;;;;;17.60;8.07;;;;;;;-14.03;65.57;99460.72;6197284;28;20072;-68
2022/11/28 13:15:02;;;;;;;14.30;7.95;;;;;;;-14.05;65.69;99467.31;6197986;28;20141;-67
2022/11/28 13:18:24;;;;;;;15.32;7.97;;;;;;;-14.09;65.64;99474.56;6196589;28;20046;-68
2022/11/28 13:21:40;;;;;;;19.88;7.35;;;;;;;-14.14;65.15;99466.63;6196949;28;20556;-68
2022/11/28 13:25:17;;;;;;;18.52;7.85;;;;;;;-14.17;65.22;99465.53;6179633;28;20137;-68
2022/11/28 13:28:28;;;;;;;21.00;9.52;;;;;;;-14.32;65.54;99466.19;6196771;28;20138;-68
2022/11/28 13:31:32;;;;;;;15.15;8.82;;;;;;;-14.34;65.37;99471.88;6197461;28;20046;-68
2022/11/28 13:34:34;;;;;;;22.27;8.80;;;;;;;-14.43;65.79;99471.19;6195882;28;20058;-67
2022/11/28 13:38:14;;;;;;;18.98;8.43;;;;;;;-14.41;65.43;99464.59;6196140;28;20454;-68
2022/11/28 13:41:37;;;;;;;11.25;5.80;;;;;;;-14.35;65.69;99467.56;6185090;28;20051;-69
2022/11/28 13:44:48;;;;;;;12.38;7.35;;;;;;;-14.49;65.70;99482.63;6196554;28;20057;-68
2022/11/28 13:47:52;;;;;;;14.48;6.68;;;;;;;-14.68;66.25;99474.47;6196855;28;20409;-68
2022/11/28 13:51:18;;;;;;;9.73;5.25;;;;;;;-14.72;66.33;99472.44;6196580;28;20038;-68
2022/11/28 13:54:20;;;;;;;6.25;4.35;;;;;;;-14.73;66.11;99483.34;6196282;28;20054;-68
2022/11/28 13:57:50;;;;;;;10.75;4.88;;;;;;;-14.74;66.41;99474.88;6196793;28;20046;-69
2022/11/28 14:01:10;;;;;;;17.48;5.70;;;;;;;-14.77;66.56;99483.88;6193937;28;20054;-68
2022/11/28 14:04:16;;;;;;;17.40;6.45;;;;;;;-14.82;66.57;99496.16;6196892;28;20136;-68
2022/11/28 14:07:27;;;;;;;13.45;5.30;;;;;;;-14.83;66.49;99488.44;6196698;28;20038;-69
2022/11/28 14:11:00;;;;;;;16.70;6.78;;;;;;;-14.85;66.55;99490.00;6195697;28;20136;-68
2022/11/28 14:14:31;;;;;;;15.45;5.85;;;;;;;-14.87;66.18;99497.44;6196348;28;20129;-68
2022/11/28 14:17:54;;;;;;;14.90;6.18;;;;;;;-14.90;66.41;99493.81;6195285;28;20050;-68
2022/11/28 14:21:04;;;;;;;15.75;5.45;;;;;;;-14.97;66.29;99492.47;6196653;28;20042;-68
2022/11/28 14:24:22;;;;;;;12.77;6.85;;;;;;;-14.90;65.79;99499.75;6196616;28;20038;-68
2022/11/28 14:27:31;;;;;;;15.48;6.93;;;;;;;-14.98;66.61;99509.25;6195913;28;20059;-68
2022/11/28 14:30:35;;;;;;;17.05;6.72;;;;;;;-15.16;66.79;99495.22;6195827;28;20403;-68
2022/11/28 14:33:42;;;;;;;18.52;7.30;;;;;;;-15.14;66.58;99506.31;6195606;28;20517;-68
2022/11/28 14:36:48;;;;;;;11.05;5.25;;;;;;;-15.17;66.54;99495.97;6195770;28;20053;-67
2022/11/28 14:39:54;;;;;;;8.02;4.25;;;;;;;-15.25;66.70;99497.03;6195525;28;20047;-69